Time;durP1;ratioP1;P1;durP2;ratioP2;P2;SDS_P1;SDS_P2;PMS_P1;PMS_P2;Temp;Humidity;BMP_temperature;BMP_pressure;BME280_temperature;BME280_humidity;BME280_pressure;Samples;Min_cycle;Max_cycle;Signal;HPM_P1;HPM_P2
2023/04/01 00:01:23;;;;;;;15.65;9.02;;;;;;;11.24;56.73;96693.88;10407310;28;20103;-53
2023/04/01 00:06:22;;;;;;;22.13;9.82;;;;;;;11.46;55.41;96707.25;10407116;28;20032;-52
2023/04/01 00:11:21;;;;;;;;;;;;;;;11.64;54.71;96700.81;10406553;28;20123;-52
2023/04/01 00:16:20;;;;;;;13.13;7.40;;;;;;;11.96;53.43;96708.75;10407286;28;19923;-53
2023/04/01 00:21:20;;;;;;;15.30;7.38;;;;;;;12.15;52.43;96699.59;10406267;28;20465;-52
2023/04/01 00:26:21;;;;;;;12.43;7.40;;;;;;;12.39;51.90;96702.53;10404555;28;20132;-53
2023/04/01 00:31:20;;;;;;;16.13;7.65;;;;;;;12.41;51.87;96675.56;10405864;28;20509;-52
2023/04/01 00:36:21;;;;;;;;;;;;;;;12.55;52.40;96696.03;10403772;28;20573;-53
2023/04/01 00:41:20;;;;;;;11.98;4.88;;;;;;;12.43;52.81;96629.56;10420203;28;20194;-53
2023/04/01 00:46:20;;;;;;;9.95;5.10;;;;;;;12.87;50.34;96695.19;10411518;28;20115;-53
2023/04/01 00:51:21;;;;;;;;;;;;;;;13.25;52.97;96674.19;10411742;28;20127;-53
2023/04/01 00:56:42;;;;;;;8.40;4.45;;;;;;;13.35;53.80;96678.22;10410713;28;19955;-53
2023/04/01 01:01:41;;;;;;;8.75;3.47;;;;;;;13.06;53.84;96621.78;10409812;28;20120;-54
2023/04/01 01:06:54;;;;;;;5.88;3.40;;;;;;;13.32;52.14;96642.69;10409719;28;20612;-53
2023/04/01 01:11:56;;;;;;;6.53;3.28;;;;;;;13.52;51.25;96631.66;10409906;28;20554;-53
2023/04/01 01:17:18;;;;;;;8.38;3.80;;;;;;;13.61;52.68;96629.69;10408193;28;20120;-53
2023/04/01 01:22:35;;;;;;;8.93;4.15;;;;;;;13.62;52.60;96626.22;10408743;28;20545;-53
2023/04/01 01:27:37;;;;;;;10.52;4.07;;;;;;;13.49;52.21;96612.66;10408244;28;20125;-53
2023/04/01 01:32:53;;;;;;;10.88;4.60;;;;;;;13.34;49.26;96607.03;10408309;28;20151;-53
2023/04/01 01:38:10;;;;;;;6.35;2.65;;;;;;;13.58;47.41;96615.00;10409678;28;20108;-53
2023/04/01 01:43:13;;;;;;;9.30;3.42;;;;;;;13.80;46.76;96607.38;10411660;28;20159;-53
2023/04/01 01:48:13;;;;;;;7.28;3.20;;;;;;;13.91;45.93;96601.78;10408287;28;20569;-53
2023/04/01 01:53:13;;;;;;;5.65;2.80;;;;;;;13.98;45.42;96587.66;10407906;28;20116;-53
2023/04/01 01:58:21;;;;;;;6.70;3.17;;;;;;;14.13;44.80;96575.88;10407893;28;20123;-53
2023/04/01 02:03:24;;;;;;;6.03;2.72;;;;;;;14.17;43.82;96572.22;10407860;28;20068;-53
2023/04/01 02:08:31;;;;;;;9.75;2.85;;;;;;;14.34;43.92;96574.28;10407755;28;20131;-54
2023/04/01 02:13:59;;;;;;;8.38;2.83;;;;;;;14.39;43.37;96575.81;10408531;28;20505;-53
2023/04/01 02:18:59;;;;;;;9.77;3.15;;;;;;;14.52;43.09;96567.53;10401437;28;20140;-53
2023/04/01 02:24:02;;;;;;;5.68;3.13;;;;;;;14.24;42.19;96521.56;10407867;28;20473;-53
2023/04/01 02:29:03;;;;;;;6.90;2.80;;;;;;;14.57;42.22;96560.41;10406546;28;20083;-54
2023/04/01 02:34:03;;;;;;;8.20;2.92;;;;;;;14.64;42.06;96561.91;10407765;28;20064;-53
2023/04/01 02:39:04;;;;;;;9.70;3.15;;;;;;;14.64;42.14;96556.69;10407005;28;20119;-54
2023/04/01 02:44:03;;;;;;;6.47;2.78;;;;;;;14.53;42.72;96548.38;10407575;28;20111;-53
2023/04/01 02:49:03;;;;;;;8.82;3.17;;;;;;;14.51;42.50;96540.59;10409112;28;20058;-53
2023/04/01 02:54:02;;;;;;;5.20;2.72;;;;;;;14.45;42.63;96539.94;10408733;28;20056;-53
2023/04/01 02:59:01;;;;;;;7.18;2.90;;;;;;;14.41;42.68;96534.84;10408642;28;20052;-53
2023/04/01 03:04:00;;;;;;;7.15;3.22;;;;;;;14.41;42.95;96545.28;10408410;28;21688;-54
2023/04/01 03:08:59;;;;;;;;;;;;;;;14.40;42.70;96548.81;10407829;28;20469;-54
2023/04/01 03:13:58;;;;;;;7.80;3.60;;;;;;;14.46;42.89;96554.72;10408880;28;20350;-54
2023/04/01 03:18:58;;;;;;;;;;;;;;;14.41;43.05;96553.13;10408022;28;20115;-51
2023/04/01 03:23:58;;;;;;;7.65;3.08;;;;;;;14.40;43.17;96558.38;10408305;28;19936;-51
2023/04/01 03:28:57;;;;;;;7.15;3.65;;;;;;;13.87;43.08;96469.84;10406324;28;20072;-53
2023/04/01 03:33:56;;;;;;;7.15;3.40;;;;;;;14.39;42.68;96557.53;10407196;28;20470;-52
2023/04/01 03:38:55;;;;;;;5.95;3.47;;;;;;;14.46;42.42;96567.78;10391283;28;20067;-53
2023/04/01 03:43:54;;;;;;;;;;;;;;;14.37;42.59;96585.44;10407440;28;20036;-53
2023/04/01 03:48:53;;;;;;;6.27;3.20;;;;;;;14.37;41.89;96575.00;10406258;28;19971;-52
2023/04/01 03:53:52;;;;;;;;;;;;;;;14.51;42.01;96581.50;10407069;28;20047;-53
2023/04/01 03:58:51;;;;;;;5.75;2.83;;;;;;;14.62;41.92;96575.00;10406324;28;19912;-52
2023/04/01 04:03:50;;;;;;;;;;;;;;;14.60;41.34;96575.97;10407597;28;20127;-52
2023/04/01 04:08:49;;;;;;;7.27;3.13;;;;;;;14.52;41.42;96567.53;10406451;28;19954;-52
2023/04/01 04:13:48;;;;;;;6.35;2.92;;;;;;;14.55;41.48;96567.44;10406564;28;20063;-52
2023/04/01 04:18:47;;;;;;;;;;;;;;;14.51;41.55;96576.28;10406229;28;20060;-53
2023/04/01 04:23:46;;;;;;;7.57;2.97;;;;;;;14.39;41.59;96546.25;10406746;28;19916;-53
2023/04/01 04:28:45;;;;;;;;;;;;;;;14.52;41.22;96567.53;10406171;28;20050;-52
2023/04/01 04:33:44;;;;;;;7.75;3.80;;;;;;;14.55;41.32;96533.50;10409274;28;19931;-53
2023/04/01 04:38:43;;;;;;;;;;;;;;;14.58;41.03;96528.16;10408568;28;20060;-52
2023/04/01 04:43:42;;;;;;;10.77;4.47;;;;;;;14.66;40.69;96514.81;10409311;28;20003;-52
2023/04/01 04:48:41;;;;;;;9.27;4.35;;;;;;;14.68;40.77;96492.97;10408994;28;20745;-52
2023/04/01 04:53:40;;;;;;;12.80;4.72;;;;;;;14.77;40.54;96479.59;10409668;28;20083;-52
2023/04/01 04:58:39;;;;;;;;;;;;;;;14.76;40.18;96462.25;10408864;28;20028;-52
2023/04/01 05:03:39;;;;;;;8.50;4.13;;;;;;;14.73;39.91;96471.94;10409145;28;19959;-52
2023/04/01 05:08:40;;;;;;;7.32;3.85;;;;;;;14.77;40.04;96469.16;10408332;28;20080;-52
2023/04/01 05:13:39;;;;;;;9.52;3.40;;;;;;;14.56;40.69;96444.66;10408987;28;20071;-52
2023/04/01 05:18:38;;;;;;;15.93;7.72;;;;;;;14.52;40.52;96423.97;10407894;28;20071;-52
2023/04/01 05:23:38;;;;;;;16.75;8.95;;;;;;;14.53;40.73;96446.56;10408376;28;20075;-53
2023/04/01 05:28:38;;;;;;;14.82;7.22;;;;;;;14.56;41.62;96420.34;10409262;28;20072;-52
2023/04/01 05:33:37;;;;;;;12.45;6.43;;;;;;;14.58;41.35;96415.91;10412521;28;20072;-53
2023/04/01 05:38:36;;;;;;;;;;;;;;;14.61;40.99;96395.75;10412567;28;20086;-53
2023/04/01 05:43:39;;;;;;;20.50;5.33;;;;;;;14.70;40.40;96378.91;10410955;28;19963;-52
2023/04/01 05:48:38;;;;;;;9.55;3.78;;;;;;;14.62;40.11;96354.84;10278339;28;20238;-53
2023/04/01 05:53:37;;;;;;;7.82;3.90;;;;;;;14.89;39.99;96386.00;10343169;28;20119;-52
2023/04/01 05:58:36;;;;;;;;;;;;;;;15.08;39.58;96378.28;10410349;28;20103;-52
2023/04/01 06:03:35;;;;;;;10.43;3.70;;;;;;;15.16;40.03;96365.75;10407381;28;19935;-53
2023/04/01 06:08:34;;;;;;;10.20;3.47;;;;;;;15.42;39.22;96386.41;10410023;28;20087;-53
2023/04/01 06:13:53;;;;;;;;;;;;;;;15.43;38.46;96368.97;10410130;28;20107;-53
2023/04/01 06:18:58;;;;;;;9.38;4.00;;;;;;;15.56;38.90;96364.06;10410145;28;19994;-53
2023/04/01 06:24:13;;;;;;;11.65;3.30;;;;;;;15.67;38.36;96361.84;10409521;28;20502;-53
2023/04/01 06:29:19;;;;;;;7.78;3.28;;;;;;;15.51;38.13;96317.22;10404946;28;20125;-53
2023/04/01 06:34:36;;;;;;;9.40;3.58;;;;;;;15.92;37.98;96348.53;10403112;28;20103;-53
2023/04/01 06:40:04;;;;;;;10.98;3.28;;;;;;;16.20;37.90;96360.38;10403753;28;20112;-52
2023/04/01 06:45:31;;;;;;;10.95;3.90;;;;;;;16.50;37.78;96361.56;10407084;28;20131;-53
2023/04/01 06:50:43;;;;;;;8.57;2.95;;;;;;;16.43;37.22;96310.41;10400952;28;20120;-53
2023/04/01 06:55:56;;;;;;;5.45;3.20;;;;;;;16.94;36.15;96352.56;10407035;28;20079;-52
2023/04/01 07:01:02;;;;;;;9.85;3.42;;;;;;;16.89;36.08;96339.69;10404560;28;20103;-52
2023/04/01 07:06:09;;;;;;;7.68;3.03;;;;;;;17.21;35.80;96354.72;10404157;28;20143;-52
2023/04/01 07:11:23;;;;;;;15.57;3.42;;;;;;;17.25;35.94;96349.25;10403105;28;20151;-52
2023/04/01 07:16:37;;;;;;;8.52;3.28;;;;;;;17.17;35.98;96338.31;10401052;28;20131;-52
2023/04/01 07:21:44;;;;;;;16.83;3.28;;;;;;;16.99;35.31;96285.03;10403787;28;20059;-52
2023/04/01 07:26:43;;;;;;;12.18;3.40;;;;;;;17.16;35.32;96302.53;10401174;28;20119;-53
2023/04/01 07:32:04;;;;;;;6.43;2.78;;;;;;;17.38;34.62;96312.78;10403485;28;20032;-53
2023/04/01 07:37:15;;;;;;;6.47;3.28;;;;;;;17.76;33.82;96299.44;10398022;28;20138;-56
2023/04/01 07:42:48;;;;;;;9.63;3.60;;;;;;;18.02;33.71;96310.34;10392994;28;20104;-53
2023/04/01 07:48:06;;;;;;;5.40;2.42;;;;;;;18.29;33.92;96302.75;10403258;28;20119;-53
2023/04/01 07:53:15;;;;;;;5.82;3.20;;;;;;;18.79;34.65;96286.81;10400824;28;20495;-53
2023/04/01 07:58:23;;;;;;;8.45;3.00;;;;;;;19.28;32.87;96298.03;10401851;28;20108;-54
2023/04/01 08:03:59;;;;;;;5.97;3.05;;;;;;;19.50;32.63;96297.59;10403040;28;20427;-54
2023/04/01 08:09:13;;;;;;;6.05;3.00;;;;;;;19.79;32.20;96291.44;10403493;28;20115;-54
2023/04/01 08:14:56;;;;;;;10.75;3.40;;;;;;;20.14;32.25;96283.16;10405607;28;20059;-54
2023/04/01 08:19:59;;;;;;;9.23;3.15;;;;;;;19.55;31.51;96149.03;10385542;28;20067;-54
2023/04/01 08:25:03;;;;;;;6.03;2.90;;;;;;;20.53;30.68;96278.09;10396624;28;20210;-54
2023/04/01 08:30:31;;;;;;;7.20;3.17;;;;;;;20.43;29.98;96278.69;10409061;28;20127;-54
2023/04/01 08:35:37;;;;;;;12.38;2.97;;;;;;;20.43;29.74;96272.56;10399301;28;20119;-54
2023/04/01 08:40:36;;;;;;;8.60;4.05;;;;;;;20.52;30.05;96269.34;10396344;28;20111;-54
2023/04/01 08:45:49;;;;;;;13.55;3.55;;;;;;;20.36;29.01;96208.03;10400191;28;20036;-54
2023/04/01 08:51:20;;;;;;;6.38;2.88;;;;;;;20.89;30.02;96228.25;10400259;28;20064;-54
2023/04/01 08:56:25;;;;;;;6.82;2.85;;;;;;;21.14;29.63;96222.13;10394215;28;20533;-54
2023/04/01 09:01:48;;;;;;;9.07;3.22;;;;;;;21.14;29.08;96221.28;10399578;28;20684;-55
2023/04/01 09:06:59;;;;;;;10.73;3.75;;;;;;;21.35;29.62;96208.47;10405588;28;20553;-55
2023/04/01 09:12:46;;;;;;;15.55;4.18;;;;;;;21.54;29.07;96197.47;10408708;28;20120;-55
2023/04/01 09:18:07;;;;;;;7.30;2.90;;;;;;;21.74;28.17;96191.63;10397982;28;20115;-55
2023/04/01 09:23:21;;;;;;;10.82;3.28;;;;;;;21.89;27.77;96191.50;10408032;28;20060;-55
2023/04/01 09:28:33;;;;;;;9.60;2.80;;;;;;;22.12;27.58;96182.78;10408045;28;20147;-55
2023/04/01 09:33:53;;;;;;;10.13;3.20;;;;;;;22.56;26.85;96176.03;10408369;28;20103;-55
2023/04/01 09:39:10;;;;;;;11.65;3.17;;;;;;;22.87;26.85;96171.13;10406471;28;20132;-55
2023/04/01 09:44:25;;;;;;;8.70;3.90;;;;;;;23.14;24.36;96144.38;10405730;28;20469;-55
2023/04/01 09:49:33;;;;;;;6.07;3.53;;;;;;;22.71;24.61;96149.41;10403496;28;20601;-53
2023/04/01 09:54:35;;;;;;;9.97;3.43;;;;;;;22.37;25.41;96141.38;10405901;28;20072;-52
2023/04/01 09:59:46;;;;;;;10.05;3.72;;;;;;;22.51;25.67;96122.69;10405600;28;20537;-55
2023/04/01 10:05:15;;;;;;;10.23;4.22;;;;;;;22.33;25.22;96116.94;10405834;28;20071;-55
2023/04/01 10:10:23;;;;;;;10.00;4.95;;;;;;;22.15;25.64;96113.03;10406035;28;20119;-54
2023/04/01 10:15:50;;;;;;;8.60;3.60;;;;;;;22.06;25.33;96109.28;10406196;28;20554;-54
2023/04/01 10:21:17;;;;;;;14.18;3.42;;;;;;;21.65;25.75;96104.34;10406936;28;20079;-54
2023/04/01 10:27:00;;;;;;;7.32;2.78;;;;;;;21.71;26.71;96088.91;10405363;28;20123;-55
2023/04/01 10:32:05;;;;;;;6.65;2.90;;;;;;;21.82;27.10;96098.66;10326537;28;20131;-54
2023/04/01 10:37:23;;;;;;;12.18;4.97;;;;;;;21.40;26.45;96078.84;10404108;28;20139;-54
2023/04/01 10:42:28;;;;;;;8.90;3.93;;;;;;;21.38;27.06;96081.56;10405603;28;20195;-54
2023/04/01 10:47:56;;;;;;;9.02;3.60;;;;;;;21.68;27.04;96072.41;10405402;28;20103;-53
2023/04/01 10:52:57;;;;;;;10.55;4.30;;;;;;;21.85;28.33;96082.63;10405667;28;20052;-53
2023/04/01 10:58:25;;;;;;;11.15;4.10;;;;;;;21.65;29.51;96078.78;10404963;28;20144;-53
2023/04/01 11:03:31;;;;;;;10.30;5.53;;;;;;;21.83;29.44;96081.00;10388693;28;20067;-53
2023/04/01 11:08:39;;;;;;;9.60;4.43;;;;;;;21.13;28.79;96062.19;10404784;28;20123;-53
2023/04/01 11:13:44;;;;;;;16.47;8.60;;;;;;;20.76;28.83;96069.19;10403545;28;20063;-52
2023/04/01 11:18:49;;;;;;;12.27;5.78;;;;;;;20.35;29.48;96069.31;10404189;28;20052;-52
2023/04/01 11:24:37;;;;;;;10.85;4.00;;;;;;;19.72;32.30;96076.97;10404412;28;20473;-52
2023/04/01 11:29:54;;;;;;;8.95;4.32;;;;;;;19.63;33.74;96059.13;10319018;28;20120;-52
2023/04/01 11:35:15;;;;;;;16.73;8.82;;;;;;;19.23;36.92;96074.78;10403615;28;20533;-52
2023/04/01 11:40:28;;;;;;;12.70;6.45;;;;;;;18.82;40.55;96068.47;10403224;28;20107;-52
2023/04/01 11:45:45;;;;;;;13.90;6.78;;;;;;;18.18;43.20;96075.78;10403096;28;20119;-51
2023/04/01 11:50:50;;;;;;;12.30;6.82;;;;;;;17.66;45.27;96083.97;10402578;28;20064;-52
2023/04/01 11:56:21;;;;;;;16.25;7.68;;;;;;;17.20;47.27;96104.84;10402299;28;20074;-52
2023/04/01 12:01:22;;;;;;;10.48;5.10;;;;;;;16.71;49.42;96154.56;10403199;28;21639;-51
2023/04/01 12:06:58;;;;;;;6.45;3.75;;;;;;;15.97;52.30;96181.75;10383944;28;20072;-52
2023/04/01 12:12:06;;;;;;;11.75;6.63;;;;;;;15.21;56.70;96225.31;10401574;28;20071;-52
2023/04/01 12:17:10;;;;;;;16.75;8.05;;;;;;;14.63;64.97;96278.22;10401725;28;20228;-53
2023/04/01 12:22:23;;;;;;;11.43;5.78;;;;;;;14.19;73.66;96333.88;10402487;28;20052;-53
2023/04/01 12:27:50;;;;;;;14.52;4.95;;;;;;;12.51;88.63;96387.38;10401476;28;20536;-50
2023/04/01 12:32:55;;;;;;;12.98;6.03;;;;;;;10.86;100.00;96390.09;10402087;28;20068;-53
2023/04/01 12:38:12;;;;;;;12.52;7.78;;;;;;;10.56;100.00;96393.34;10403872;28;20343;-52
2023/04/01 12:43:26;;;;;;;13.68;7.93;;;;;;;10.82;100.00;96394.47;10410255;28;20118;-53
2023/04/01 12:48:36;;;;;;;17.10;8.07;;;;;;;11.17;100.00;96375.47;10410535;28;20462;-53
2023/04/01 12:53:51;;;;;;;20.58;10.57;;;;;;;11.22;100.00;96358.06;10410308;28;20064;-52
2023/04/01 12:58:59;;;;;;;13.43;5.63;;;;;;;11.48;100.00;96359.13;10408220;28;20502;-49
2023/04/01 13:04:04;;;;;;;17.43;11.27;;;;;;;11.64;100.00;96365.59;10409606;28;20602;-52
2023/04/01 13:09:21;;;;;;;20.08;13.00;;;;;;;11.62;100.00;96376.94;10408856;28;20454;-53
2023/04/01 13:14:20;;;;;;;20.65;9.95;;;;;;;11.38;100.00;96365.44;10408403;28;20144;-52
2023/04/01 13:19:44;;;;;;;17.45;9.73;;;;;;;11.40;100.00;96335.94;10408749;28;20028;-53
2023/04/01 13:25:18;;;;;;;32.80;21.65;;;;;;;11.61;100.00;96312.84;10408826;28;20124;-54
2023/04/01 13:30:30;;;;;;;27.17;18.77;;;;;;;11.62;100.00;96293.78;10405623;28;20547;-54
2023/04/01 13:35:47;;;;;;;20.02;10.35;;;;;;;11.60;100.00;96283.44;10408123;28;20063;-53
2023/04/01 13:40:49;;;;;;;23.52;13.30;;;;;;;11.72;100.00;96274.44;10408690;28;20080;-54
2023/04/01 13:46:00;;;;;;;26.67;13.77;;;;;;;11.74;100.00;96267.44;10407820;28;20056;-55
2023/04/01 13:51:17;;;;;;;32.20;14.98;;;;;;;11.68;100.00;96236.44;10407080;28;20060;-54
2023/04/01 13:56:43;;;;;;;30.23;17.60;;;;;;;11.78;100.00;96232.69;10407283;28;20060;-55
2023/04/01 14:01:57;;;;;;;21.45;14.63;;;;;;;12.15;100.00;96239.31;10407307;28;20068;-53
2023/04/01 14:07:14;;;;;;;22.02;13.75;;;;;;;12.17;100.00;96218.47;10407295;28;20474;-52
2023/04/01 14:12:38;;;;;;;19.30;12.18;;;;;;;12.19;100.00;96207.13;10406727;28;20119;-53
2023/04/01 14:17:52;;;;;;;15.20;9.38;;;;;;;12.27;100.00;96199.06;10406540;28;20056;-52
2023/04/01 14:23:10;;;;;;;13.60;8.13;;;;;;;12.45;100.00;96193.28;10406680;28;20119;-52
2023/04/01 14:28:39;;;;;;;16.05;8.85;;;;;;;12.69;100.00;96170.78;10404718;28;20068;-53
2023/04/01 14:34:04;;;;;;;14.25;5.93;;;;;;;12.93;100.00;96152.63;10405773;28;20105;-52
2023/04/01 14:39:31;;;;;;;7.95;3.95;;;;;;;13.03;100.00;96143.56;10378152;28;20052;-53
2023/04/01 14:44:55;;;;;;;3.78;2.30;;;;;;;12.86;100.00;96132.88;10403283;28;20103;-54
2023/04/01 14:50:06;;;;;;;5.35;2.53;;;;;;;12.72;100.00;96081.34;10402369;28;20152;-52
2023/04/01 14:55:30;;;;;;;4.57;2.90;;;;;;;12.87;100.00;96095.56;10403544;28;20083;-51
2023/04/01 15:00:53;;;;;;;6.22;3.90;;;;;;;12.88;100.00;96071.19;10404306;28;20068;-51
2023/04/01 15:06:08;;;;;;;4.13;2.70;;;;;;;13.00;100.00;96089.00;10405138;28;20117;-53
2023/04/01 15:11:37;;;;;;;5.47;2.70;;;;;;;13.12;100.00;96104.16;10403748;28;20064;-53
2023/04/01 15:16:41;;;;;;;68.40;7.13;;;;;;;13.04;100.00;96124.41;10402964;28;20076;-52
2023/04/01 15:21:59;;;;;;;53.67;6.38;;;;;;;12.75;100.00;96075.19;10402484;28;20478;-52
2023/04/01 15:27:16;;;;;;;11.38;4.60;;;;;;;13.09;100.00;96148.56;10403571;28;20455;-52
2023/04/01 15:32:46;;;;;;;11.55;5.93;;;;;;;12.94;93.54;96134.31;10402919;28;20435;-52
2023/04/01 15:37:51;;;;;;;;;;;;;;;12.97;98.02;96135.13;10404007;28;20112;-51
2023/04/01 15:43:08;;;;;;;4.78;2.00;;;;;;;12.96;94.34;96134.28;10403058;28;20480;-51
2023/04/01 15:48:26;;;;;;;5.88;2.75;;;;;;;12.95;98.52;96124.75;10401992;28;20119;-52
2023/04/01 15:53:46;;;;;;;5.88;3.13;;;;;;;12.90;92.72;96135.31;10402688;28;20521;-52
2023/04/01 15:58:48;;;;;;;5.22;3.38;;;;;;;12.99;99.53;96136.75;10402334;28;20063;-52
2023/04/01 16:04:18;;;;;;;6.22;3.70;;;;;;;13.08;100.00;96151.19;10401547;28;20116;-53
2023/04/01 16:09:53;;;;;;;5.43;3.13;;;;;;;13.20;100.00;96145.53;10402334;28;20104;-53
2023/04/01 16:15:11;;;;;;;9.43;4.03;;;;;;;12.87;86.59;96264.75;10401760;28;20466;-53
2023/04/01 16:20:17;;;;;;;6.38;1.90;;;;;;;11.87;86.34;96325.94;10401335;28;20119;-52
2023/04/01 16:25:49;;;;;;;2.83;1.90;;;;;;;10.92;91.22;96367.47;10401796;28;20103;-52
2023/04/01 16:30:57;;;;;;;4.82;2.33;;;;;;;10.31;91.19;96389.63;10401995;28;20087;-53
2023/04/01 16:36:20;;;;;;;8.57;5.40;;;;;;;10.10;89.00;96403.91;10405158;28;20079;-53
2023/04/01 16:41:25;;;;;;;3.58;2.22;;;;;;;10.01;84.91;96425.66;10404822;28;20064;-52
2023/04/01 16:46:32;;;;;;;5.07;3.05;;;;;;;10.09;91.14;96449.69;10404037;28;20056;-53
2023/04/01 16:51:39;;;;;;;8.10;4.60;;;;;;;9.82;91.09;96377.69;10403856;28;20079;-52
2023/04/01 16:56:54;;;;;;;2.33;1.95;;;;;;;9.88;95.28;96336.09;10404686;28;20056;-53
2023/04/01 17:02:02;;;;;;;3.40;2.05;;;;;;;10.24;96.89;96354.31;10404385;28;20078;-52
2023/04/01 17:07:23;;;;;;;3.80;2.35;;;;;;;10.20;96.13;96367.38;10403305;28;20082;-53
2023/04/01 17:12:37;;;;;;;7.28;4.35;;;;;;;10.01;92.19;96414.44;10395204;28;20542;-53
2023/04/01 17:18:01;;;;;;;4.97;3.55;;;;;;;10.18;96.23;96408.00;10402556;28;20067;-54
2023/04/01 17:23:14;;;;;;;7.40;4.40;;;;;;;10.16;97.12;96416.72;10403935;28;20095;-53
2023/04/01 17:28:36;;;;;;;11.48;6.18;;;;;;;10.12;96.25;96428.03;10409597;28;20442;-54
2023/04/01 17:33:48;;;;;;;7.50;4.50;;;;;;;9.99;94.76;96427.44;10407759;28;20068;-53
2023/04/01 17:39:05;;;;;;;9.98;5.10;;;;;;;9.84;92.99;96445.84;10426810;28;20174;-53
2023/04/01 17:44:21;;;;;;;11.15;5.93;;;;;;;9.72;92.12;96444.34;10407081;28;20068;-54
2023/04/01 17:49:38;;;;;;;7.28;4.07;;;;;;;9.56;91.69;96438.63;10406682;28;20082;-55
2023/04/01 17:55:03;;;;;;;5.57;3.53;;;;;;;9.49;87.86;96448.22;10406293;28;20312;-53
2023/04/01 18:00:11;;;;;;;5.25;3.33;;;;;;;9.52;90.76;96443.00;10406460;28;20103;-53
2023/04/01 18:05:48;;;;;;;4.90;3.03;;;;;;;9.49;91.57;96435.28;10406512;28;20102;-53
2023/04/01 18:11:16;;;;;;;3.25;2.60;;;;;;;9.37;92.06;96469.13;10404818;28;20529;-53
2023/04/01 18:16:21;;;;;;;5.10;3.10;;;;;;;9.39;91.05;96485.50;10406050;28;20474;-54
2023/04/01 18:21:42;;;;;;;3.35;2.55;;;;;;;9.35;91.32;96495.06;10405058;28;20059;-54
2023/04/01 18:26:46;;;;;;;3.78;2.90;;;;;;;9.25;88.73;96516.75;10404303;28;20167;-56
2023/04/01 18:31:54;;;;;;;4.13;3.10;;;;;;;9.22;88.94;96532.34;10404876;28;20111;-53
2023/04/01 18:36:59;;;;;;;2.60;2.28;;;;;;;9.09;87.86;96503.22;10404427;28;20075;-56
2023/04/01 18:42:14;;;;;;;2.97;2.60;;;;;;;8.99;86.18;96509.41;10403789;28;20490;-55
2023/04/01 18:47:42;;;;;;;2.50;2.30;;;;;;;8.98;85.09;96525.81;10404279;28;20116;-55
2023/04/01 18:52:43;;;;;;;2.92;2.50;;;;;;;9.04;86.50;96558.50;10404057;28;20564;-55
2023/04/01 18:57:42;;;;;;;3.13;2.83;;;;;;;8.96;83.72;96558.59;10404329;28;20064;-55
2023/04/01 19:02:48;;;;;;;3.30;3.00;;;;;;;8.96;83.97;96561.19;10404273;28;20095;-55
2023/04/01 19:07:55;;;;;;;3.28;2.97;;;;;;;8.71;80.27;96539.97;10403363;28;20116;-51
2023/04/01 19:13:02;;;;;;;3.75;3.13;;;;;;;8.80;82.67;96555.38;10403971;28;20072;-53
2023/04/01 19:18:18;;;;;;;3.53;3.15;;;;;;;8.80;81.25;96559.69;10376384;28;20574;-53
2023/04/01 19:24:03;;;;;;;5.15;3.53;;;;;;;8.87;81.58;96567.34;10409594;28;20052;-53
2023/04/01 19:29:41;;;;;;;4.53;3.20;;;;;;;8.86;80.71;96576.00;10403151;28;20119;-54
2023/04/01 19:35:07;;;;;;;3.40;3.10;;;;;;;8.87;81.99;96582.88;10383521;28;20068;-54
2023/04/01 19:40:44;;;;;;;4.25;3.10;;;;;;;8.91;82.86;96604.41;10406904;28;20064;-53
2023/04/01 19:45:51;;;;;;;3.83;3.33;;;;;;;8.93;80.73;96598.31;10406815;28;20067;-53
2023/04/01 19:51:06;;;;;;;4.15;3.00;;;;;;;8.91;82.17;96596.63;10405896;28;20064;-54
2023/04/01 19:56:21;;;;;;;3.42;3.13;;;;;;;8.95;81.93;96603.47;10406183;28;20060;-54
2023/04/01 20:01:32;;;;;;;2.70;2.50;;;;;;;8.85;80.07;96569.09;10404543;28;20064;-54
2023/04/01 20:06:52;;;;;;;4.47;2.72;;;;;;;8.84;79.70;96538.94;10405442;28;20197;-54
2023/04/01 20:12:20;;;;;;;3.05;2.75;;;;;;;8.82;78.86;96545.84;10405452;28;20076;-54
2023/04/01 20:17:37;;;;;;;2.80;2.60;;;;;;;8.88;78.12;96558.72;10403424;28;20075;-54
2023/04/01 20:22:45;;;;;;;3.28;2.70;;;;;;;8.82;77.90;96574.31;10404166;28;20080;-53
2023/04/01 20:27:50;;;;;;;4.95;2.70;;;;;;;8.74;76.47;96581.34;10405064;28;20064;-54
2023/04/01 20:33:10;;;;;;;10.07;5.15;;;;;;;8.87;74.68;96608.75;10403059;28;20067;-52
2023/04/01 20:38:23;;;;;;;3.67;2.55;;;;;;;8.90;71.15;96619.06;10401860;28;20068;-54
2023/04/01 20:43:57;;;;;;;4.13;2.97;;;;;;;8.97;76.47;96650.88;10402026;28;20070;-52
2023/04/01 20:49:19;;;;;;;5.18;3.55;;;;;;;9.03;71.12;96634.44;10400251;28;20135;-55
2023/04/01 20:54:49;;;;;;;4.22;2.92;;;;;;;9.08;74.66;96649.00;10391592;28;20492;-52
2023/04/01 21:00:29;;;;;;;4.15;2.90;;;;;;;9.05;72.96;96664.59;10403674;28;20160;-53
2023/04/01 21:05:28;;;;;;;3.28;2.78;;;;;;;9.03;71.07;96666.31;10398625;28;20064;-52
2023/04/01 21:11:07;;;;;;;4.70;3.20;;;;;;;9.12;73.65;96680.91;10409547;28;20055;-53
2023/04/01 21:16:31;;;;;;;5.75;3.38;;;;;;;9.15;72.46;96673.94;10408455;28;20063;-53
2023/04/01 21:21:36;;;;;;;5.80;3.40;;;;;;;9.20;72.28;96673.88;10408868;28;20085;-52
2023/04/01 21:26:35;;;;;;;4.25;3.10;;;;;;;9.17;73.12;96670.47;10407185;28;20776;-53
2023/04/01 21:32:14;;;;;;;4.95;3.28;;;;;;;9.17;70.43;96665.31;10408542;28;20489;-53
2023/04/01 21:37:19;;;;;;;4.53;3.20;;;;;;;9.12;71.82;96683.47;10318141;28;20074;-52
2023/04/01 21:43:09;;;;;;;4.13;3.17;;;;;;;9.20;71.75;96694.56;10407781;28;20051;-53
2023/04/01 21:48:35;;;;;;;4.35;3.40;;;;;;;9.23;73.91;96694.56;10406541;28;20111;-52
2023/04/01 21:53:49;;;;;;;3.90;3.08;;;;;;;9.23;73.99;96672.97;10408202;28;20082;-53
2023/04/01 21:59:22;;;;;;;5.32;3.88;;;;;;;9.18;72.08;96675.63;10407111;28;20108;-53
2023/04/01 22:04:58;;;;;;;4.57;3.38;;;;;;;9.31;77.20;96684.13;10406111;28;20266;-52
2023/04/01 22:10:12;;;;;;;4.10;3.60;;;;;;;9.31;75.00;96687.56;10403117;28;20124;-53
2023/04/01 22:15:17;;;;;;;3.53;3.22;;;;;;;9.32;73.86;96675.47;10403566;28;20127;-53
2023/04/01 22:20:23;;;;;;;3.85;3.08;;;;;;;9.41;75.29;96687.44;10402456;28;20119;-53
2023/04/01 22:25:22;;;;;;;4.13;3.13;;;;;;;9.41;74.31;96698.66;10403520;28;20082;-53
2023/04/01 22:30:29;;;;;;;4.07;3.30;;;;;;;9.49;73.69;96701.16;10406557;28;20033;-53
2023/04/01 22:35:37;;;;;;;2.92;2.47;;;;;;;9.52;73.58;96694.19;10408616;28;20076;-52
2023/04/01 22:40:51;;;;;;;2.50;2.20;;;;;;;9.41;72.03;96651.19;10409307;28;20082;-53
2023/04/01 22:46:05;;;;;;;2.40;2.20;;;;;;;9.69;70.19;96693.94;10409250;28;20474;-52
2023/04/01 22:51:11;;;;;;;2.65;2.22;;;;;;;9.79;68.08;96689.47;10408477;28;20068;-52
2023/04/01 22:56:20;;;;;;;1.80;1.65;;;;;;;9.70;70.75;96658.53;10408560;28;20078;-52
2023/04/01 23:01:27;;;;;;;2.92;2.00;;;;;;;8.83;67.99;96519.13;10408852;28;20060;-53
2023/04/01 23:06:31;;;;;;;2.67;1.88;;;;;;;9.54;69.05;96619.06;10408435;28;21006;-52
2023/04/01 23:11:36;;;;;;;2.40;1.70;;;;;;;9.91;67.11;96683.25;10408376;28;20076;-52
2023/04/01 23:16:43;;;;;;;2.80;2.50;;;;;;;9.83;67.32;96666.97;10407500;28;20488;-53
2023/04/01 23:21:59;;;;;;;2.47;1.50;;;;;;;9.49;65.83;96660.56;10406741;28;20489;-52
2023/04/01 23:27:05;;;;;;;1.67;1.50;;;;;;;9.51;66.04;96682.13;10406665;28;20076;-52
2023/04/01 23:32:04;;;;;;;1.92;1.40;;;;;;;9.43;65.50;96673.59;10405424;28;20067;-52
2023/04/01 23:37:12;;;;;;;2.80;1.45;;;;;;;9.31;66.00;96676.38;10401294;28;20119;-53
2023/04/01 23:42:20;;;;;;;1.40;1.30;;;;;;;9.33;66.09;96697.91;10403738;28;20060;-52
2023/04/01 23:47:23;;;;;;;3.03;1.40;;;;;;;8.99;66.13;96656.03;10404499;28;20128;-52
2023/04/01 23:52:40;;;;;;;2.25;1.50;;;;;;;9.25;65.93;96700.53;10403002;28;20074;-52
2023/04/01 23:57:39;;;;;;;3.67;1.50;;;;;;;9.26;66.47;96704.88;10402472;28;20051;-52
